createdAt,value
2023-02-23T00:01:54.327Z,6.43
2023-02-23T00:04:23.822Z,5.43
2023-02-23T00:06:54.426Z,8.45
2023-02-23T00:09:24.947Z,7.70
2023-02-23T00:11:56.419Z,7.53
2023-02-23T00:14:28.886Z,4.15
2023-02-23T00:16:56.442Z,3.00
2023-02-23T00:19:25.197Z,6.28
2023-02-23T00:21:53.895Z,6.78
2023-02-23T00:24:22.020Z,4.20
2023-02-23T00:26:51.685Z,6.18
2023-02-23T00:29:22.366Z,7.10
2023-02-23T00:31:51.163Z,7.68
2023-02-23T00:34:21.183Z,9.98
2023-02-23T00:36:55.509Z,5.85
2023-02-23T00:39:29.104Z,7.13
2023-02-23T00:42:02.889Z,5.75
2023-02-23T00:44:31.871Z,8.90
2023-02-23T00:47:01.244Z,5.07
2023-02-23T00:49:29.242Z,6.97
2023-02-23T00:51:56.700Z,6.53
2023-02-23T00:54:23.945Z,4.43
2023-02-23T00:56:51.804Z,5.65
2023-02-23T00:59:19.729Z,4.47
2023-02-23T01:01:48.067Z,8.40
2023-02-23T01:04:16.710Z,5.30
2023-02-23T01:06:44.202Z,7.53
2023-02-23T01:09:27.146Z,4.53
2023-02-23T01:11:56.510Z,5.00
2023-02-23T01:16:51.738Z,4.25
2023-02-23T01:19:21.934Z,5.25
2023-02-23T01:21:50.018Z,5.20
2023-02-23T01:24:18.388Z,5.10
2023-02-23T01:26:46.488Z,4.15
2023-02-23T01:29:16.913Z,8.68
2023-02-23T01:31:47.044Z,4.70
2023-02-23T01:34:19.647Z,4.60
2023-02-23T01:36:47.075Z,3.88
2023-02-23T01:39:17.278Z,3.90
2023-02-23T01:41:45.212Z,4.40
2023-02-23T01:44:12.621Z,4.32
2023-02-23T01:46:43.634Z,6.00
2023-02-23T01:49:22.967Z,4.90
2023-02-23T01:51:56.929Z,5.50
2023-02-23T01:54:32.660Z,2.75
2023-02-23T01:59:36.274Z,7.22
2023-02-23T02:02:05.838Z,6.13
2023-02-23T02:04:44.786Z,4.43
2023-02-23T02:07:25.783Z,4.35
2023-02-23T02:10:11.704Z,5.55
2023-02-23T02:12:44.214Z,8.55
2023-02-23T02:15:17.469Z,8.43
2023-02-23T02:18:03.334Z,4.90
2023-02-23T02:20:52.514Z,3.97
2023-02-23T02:23:53.702Z,3.25
2023-02-23T02:26:30.435Z,5.10
2023-02-23T02:29:19.120Z,5.85
2023-02-23T02:32:08.034Z,9.95
2023-02-23T02:35:18.940Z,5.60
2023-02-23T02:38:10.847Z,6.43
2023-02-23T02:40:57.353Z,3.75
2023-02-23T02:44:10.514Z,3.67
2023-02-23T02:46:41.510Z,11.73
2023-02-23T02:49:21.852Z,2.53
2023-02-23T02:52:15.106Z,4.38
2023-02-23T02:54:56.784Z,6.40
2023-02-23T02:57:27.565Z,5.35
2023-02-23T03:00:13.293Z,5.00
2023-02-23T03:02:59.833Z,6.25
2023-02-23T03:06:04.732Z,5.43
2023-02-23T03:08:59.721Z,3.80
2023-02-23T03:11:55.342Z,6.43
2023-02-23T03:14:54.236Z,8.82
2023-02-23T03:17:50.567Z,1.35
2023-02-23T03:20:44.967Z,1.42
2023-02-23T03:26:32.945Z,3.60
2023-02-23T03:29:51.829Z,3.78
2023-02-23T03:32:48.673Z,3.33
2023-02-23T03:36:04.864Z,4.68
2023-02-23T03:39:00.121Z,6.28
2023-02-23T03:41:49.735Z,2.80
2023-02-23T03:44:59.567Z,2.55
2023-02-23T03:47:50.621Z,2.25
2023-02-23T03:50:49.527Z,6.00
2023-02-23T03:53:41.853Z,8.13
2023-02-23T03:56:30.427Z,9.30
2023-02-23T03:59:19.682Z,10.27
2023-02-23T04:02:10.121Z,11.10
2023-02-23T04:04:58.885Z,8.35
2023-02-23T04:07:45.571Z,3.50
2023-02-23T04:11:15.197Z,6.20
2023-02-23T04:13:49.018Z,8.00
2023-02-23T04:16:17.485Z,9.27
2023-02-23T04:18:45.188Z,7.97
2023-02-23T04:21:13.617Z,8.50
2023-02-23T04:23:42.638Z,6.28
2023-02-23T04:26:21.534Z,3.10
2023-02-23T04:28:52.346Z,4.68
2023-02-23T04:31:22.829Z,8.05
2023-02-23T04:33:51.544Z,4.95
2023-02-23T04:36:18.892Z,6.60
2023-02-23T04:38:46.084Z,5.47
2023-02-23T04:41:25.383Z,8.02
2023-02-23T04:43:52.680Z,8.63
2023-02-23T04:46:19.992Z,5.28
2023-02-23T04:48:47.488Z,8.02
2023-02-23T04:51:14.759Z,3.67
2023-02-23T04:53:41.992Z,5.22
2023-02-23T04:56:09.200Z,4.10
2023-02-23T04:58:36.420Z,6.15
2023-02-23T05:01:09.597Z,4.45
2023-02-23T05:03:36.863Z,5.30
2023-02-23T05:06:04.207Z,3.25
2023-02-23T05:08:31.555Z,7.45
2023-02-23T05:10:58.918Z,5.13
2023-02-23T05:13:26.258Z,6.60
2023-02-23T05:15:57.746Z,2.80
2023-02-23T05:18:29.062Z,5.57
2023-02-23T05:21:03.805Z,8.40
2023-02-23T05:23:31.234Z,4.13
2023-02-23T05:26:07.232Z,6.78
2023-02-23T05:28:38.420Z,6.70
2023-02-23T05:31:06.881Z,6.13
2023-02-23T05:33:35.080Z,5.97
2023-02-23T05:36:05.488Z,8.93
2023-02-23T05:38:32.687Z,7.82
2023-02-23T05:41:00.034Z,9.25
2023-02-23T05:43:35.276Z,3.90
2023-02-23T05:46:16.845Z,7.07
2023-02-23T05:48:44.109Z,4.97
2023-02-23T05:51:15.798Z,5.47
2023-02-23T05:53:44.391Z,6.38
2023-02-23T05:56:20.194Z,4.78
2023-02-23T05:59:14.130Z,6.82
2023-02-23T06:01:41.590Z,7.45
2023-02-23T06:04:09.190Z,5.93
2023-02-23T06:06:36.594Z,19.67
2023-02-23T06:11:47.889Z,9.13
2023-02-23T06:14:16.406Z,6.80
2023-02-23T06:16:45.275Z,8.48
2023-02-23T06:19:12.604Z,7.72
2023-02-23T06:21:39.781Z,8.43
2023-02-23T06:24:08.098Z,7.15
2023-02-23T06:26:39.543Z,6.82
2023-02-23T06:29:08.808Z,6.43
2023-02-23T06:31:36.053Z,7.40
2023-02-23T06:34:29.506Z,7.18
2023-02-23T06:36:56.995Z,6.95
2023-02-23T06:39:24.191Z,8.05
2023-02-23T06:41:52.015Z,6.25
2023-02-23T06:44:19.206Z,7.68
2023-02-23T06:46:46.436Z,6.55
2023-02-23T06:49:16.422Z,4.78
2023-02-23T06:51:50.059Z,7.82
2023-02-23T06:54:19.404Z,8.15
2023-02-23T06:59:16.993Z,7.25
2023-02-23T07:01:44.814Z,8.07
2023-02-23T07:04:16.667Z,7.97
2023-02-23T07:06:44.525Z,8.45
2023-02-23T07:09:11.736Z,8.48
2023-02-23T07:11:41.589Z,8.70
2023-02-23T07:14:15.369Z,13.32
2023-02-23T07:16:45.726Z,9.05
2023-02-23T07:19:12.948Z,12.60
2023-02-23T07:21:40.134Z,13.55
2023-02-23T07:24:07.988Z,12.48
2023-02-23T07:26:35.584Z,10.73
2023-02-23T07:29:03.394Z,9.07
2023-02-23T07:31:30.694Z,10.68
2023-02-23T07:33:57.897Z,11.93
2023-02-23T07:36:25.196Z,15.68
2023-02-23T07:38:52.442Z,13.93
2023-02-23T07:41:19.988Z,11.13
2023-02-23T07:43:47.449Z,12.48
2023-02-23T07:46:15.570Z,14.48
2023-02-23T07:48:46.538Z,10.50
2023-02-23T07:51:17.428Z,11.90
2023-02-23T07:53:45.061Z,12.20
2023-02-23T07:56:13.166Z,10.63
2023-02-23T07:58:42.394Z,13.23
2023-02-23T08:01:11.616Z,11.68
2023-02-23T08:03:39.342Z,14.60
2023-02-23T08:06:07.056Z,10.60
2023-02-23T08:08:35.348Z,17.90
2023-02-23T08:11:04.788Z,13.88
2023-02-23T08:13:32.733Z,15.90
2023-02-23T08:16:00.139Z,17.17
2023-02-23T08:18:27.900Z,17.20
2023-02-23T08:21:02.953Z,19.35
2023-02-23T08:23:34.426Z,16.15
2023-02-23T08:26:02.943Z,16.27
2023-02-23T08:28:31.194Z,16.90
2023-02-23T08:30:59.407Z,15.38
2023-02-23T08:33:26.790Z,18.55
2023-02-23T08:35:54.034Z,18.08
2023-02-23T08:38:21.275Z,13.77
2023-02-23T08:40:48.520Z,12.55
2023-02-23T08:43:16.716Z,18.52
2023-02-23T08:45:43.962Z,19.08
2023-02-23T08:48:15.297Z,17.27
2023-02-23T08:50:42.881Z,15.40
2023-02-23T08:53:10.572Z,18.65
2023-02-23T08:55:38.539Z,18.92
2023-02-23T08:58:09.320Z,19.58
2023-02-23T09:00:38.818Z,16.95
2023-02-23T09:03:21.304Z,21.48
2023-02-23T09:05:49.380Z,17.55
2023-02-23T09:08:16.644Z,24.02
2023-02-23T09:10:44.974Z,21.90
2023-02-23T09:13:12.639Z,25.42
2023-02-23T09:15:40.917Z,24.27
2023-02-23T09:18:10.904Z,19.50
2023-02-23T09:20:41.580Z,24.58
2023-02-23T09:23:14.839Z,25.40
2023-02-23T09:25:43.853Z,27.67
2023-02-23T09:28:16.272Z,20.92
2023-02-23T09:30:45.312Z,25.45
2023-02-23T09:33:13.903Z,23.90
2023-02-23T09:35:41.457Z,25.10
2023-02-23T09:38:09.453Z,22.08
2023-02-23T09:40:39.647Z,24.13
2023-02-23T09:43:16.600Z,26.42
2023-02-23T09:45:54.886Z,25.85
2023-02-23T09:48:25.073Z,23.58
2023-02-23T09:50:55.544Z,25.63
2023-02-23T09:53:51.205Z,29.17
2023-02-23T09:56:39.702Z,32.13
2023-02-23T09:59:13.003Z,35.45
2023-02-23T10:01:57.472Z,39.75
2023-02-23T10:04:47.834Z,44.40
2023-02-23T10:07:30.139Z,40.25
2023-02-23T10:10:11.023Z,32.78
2023-02-23T10:12:58.208Z,43.45
2023-02-23T10:15:38.485Z,33.28
2023-02-23T10:18:17.810Z,33.15
2023-02-23T10:21:02.918Z,29.08
2023-02-23T10:23:40.595Z,34.40
2023-02-23T10:26:15.425Z,30.17
2023-02-23T10:28:44.530Z,32.15
2023-02-23T10:31:56.791Z,27.85
2023-02-23T10:34:26.877Z,27.90
2023-02-23T10:37:02.364Z,27.00
2023-02-23T10:39:34.500Z,34.83
2023-02-23T10:42:12.224Z,32.10
2023-02-23T10:44:44.321Z,39.17
2023-02-23T10:47:19.029Z,30.75
2023-02-23T10:49:49.855Z,32.75
2023-02-23T10:52:24.220Z,38.85
2023-02-23T10:54:52.024Z,34.55
2023-02-23T10:57:24.520Z,41.78
2023-02-23T11:00:17.183Z,39.03
2023-02-23T11:02:45.925Z,42.33
2023-02-23T11:05:35.413Z,40.10
2023-02-23T11:08:29.217Z,39.53
2023-02-23T11:10:56.480Z,42.85
2023-02-23T11:13:29.102Z,39.15
2023-02-23T11:16:06.446Z,42.33
2023-02-23T11:18:33.883Z,43.05
2023-02-23T11:21:01.941Z,39.28
2023-02-23T11:23:36.908Z,34.55
2023-02-23T11:26:22.885Z,41.00
2023-02-23T11:28:57.385Z,43.80
2023-02-23T11:31:34.665Z,37.83
2023-02-23T11:34:06.299Z,40.42
2023-02-23T11:36:36.467Z,44.78
2023-02-23T11:39:03.646Z,45.80
2023-02-23T11:41:32.839Z,38.47
2023-02-23T11:46:33.335Z,42.55
2023-02-23T11:49:08.856Z,41.40
2023-02-23T11:51:39.676Z,44.80
2023-02-23T11:54:17.069Z,43.47
2023-02-23T11:56:50.906Z,40.67
2023-02-23T11:59:22.261Z,43.13
2023-02-23T12:01:54.628Z,42.80
2023-02-23T12:04:37.332Z,43.83
2023-02-23T12:07:38.830Z,50.05
2023-02-23T12:10:44.044Z,47.72
2023-02-23T12:13:38.007Z,49.40
2023-02-23T12:16:33.615Z,49.45
2023-02-23T12:19:13.446Z,55.95
2023-02-23T12:22:15.607Z,46.20
2023-02-23T12:24:53.827Z,57.17
2023-02-23T12:27:41.685Z,42.63
2023-02-23T12:30:25.398Z,44.55
2023-02-23T12:33:05.009Z,45.50
2023-02-23T12:35:49.186Z,48.17
2023-02-23T12:38:30.869Z,44.08
2023-02-23T12:41:14.417Z,54.67
2023-02-23T12:43:51.428Z,47.28
2023-02-23T12:46:23.490Z,47.63
2023-02-23T12:49:12.357Z,42.50
2023-02-23T12:51:48.305Z,48.53
2023-02-23T12:54:17.415Z,47.35
2023-02-23T13:02:25.622Z,46.33
2023-02-23T13:04:52.865Z,36.67
2023-02-23T13:07:59.184Z,36.35
2023-02-23T13:11:06.615Z,40.97
2023-02-23T13:13:51.728Z,40.03
2023-02-23T13:16:29.418Z,44.78
2023-02-23T13:19:38.989Z,43.53
2023-02-23T13:22:15.087Z,42.72
2023-02-23T13:25:29.967Z,46.78
2023-02-23T13:28:00.201Z,42.92
2023-02-23T13:30:32.441Z,42.10
2023-02-23T13:33:03.214Z,39.22
2023-02-23T13:35:36.465Z,43.60
2023-02-23T13:38:26.209Z,44.05
2023-02-23T13:41:11.852Z,47.47
2023-02-23T13:43:59.211Z,41.50
2023-02-23T13:46:40.433Z,46.20
2023-02-23T13:49:25.450Z,43.38
2023-02-23T13:52:00.709Z,40.78
2023-02-23T13:57:03.523Z,42.20
2023-02-23T13:59:42.381Z,49.88
2023-02-23T14:02:34.547Z,53.70
2023-02-23T14:05:16.899Z,48.80
2023-02-23T14:07:47.138Z,39.00
2023-02-23T14:10:47.020Z,45.85
2023-02-23T14:15:49.953Z,41.85
2023-02-23T14:18:26.179Z,45.15
2023-02-23T14:21:18.302Z,47.55
2023-02-23T14:23:52.459Z,40.72
2023-02-23T14:26:28.826Z,44.47
2023-02-23T14:29:20.567Z,43.53
2023-02-23T14:32:04.041Z,43.72
2023-02-23T14:34:46.354Z,42.17
2023-02-23T14:37:40.062Z,45.33
2023-02-23T14:40:15.053Z,37.38
2023-02-23T14:42:46.128Z,41.15
2023-02-23T14:45:27.201Z,43.92
2023-02-23T14:48:01.571Z,37.30
2023-02-23T14:50:33.350Z,40.33
2023-02-23T14:53:02.242Z,39.30
2023-02-23T14:55:32.889Z,36.67
2023-02-23T14:58:01.625Z,39.28
2023-02-23T15:00:41.335Z,33.88
2023-02-23T15:03:12.690Z,33.38
2023-02-23T15:05:45.801Z,32.53
2023-02-23T15:08:17.267Z,36.33
2023-02-23T15:10:47.625Z,32.22
2023-02-23T15:13:39.798Z,31.77
2023-02-23T15:16:23.463Z,31.80
2023-02-23T15:19:31.954Z,31.60
2023-02-23T15:22:01.685Z,26.90
2023-02-23T15:24:41.180Z,30.38
2023-02-23T15:27:23.536Z,31.38
2023-02-23T15:29:55.409Z,29.90
2023-02-23T15:32:25.374Z,29.00
2023-02-23T15:34:55.469Z,30.80
2023-02-23T15:37:36.254Z,23.00
2023-02-23T15:40:17.508Z,23.00
2023-02-23T15:42:51.315Z,31.42
2023-02-23T15:45:30.965Z,27.15
2023-02-23T15:48:03.189Z,22.92
2023-02-23T15:50:42.613Z,31.02
2023-02-23T15:53:27.436Z,35.38
2023-02-23T15:56:04.190Z,39.40
2023-02-23T15:58:44.587Z,39.72
2023-02-23T16:01:31.054Z,31.08
2023-02-23T16:04:02.693Z,24.63
2023-02-23T16:06:34.771Z,23.10
2023-02-23T16:09:24.126Z,23.80
2023-02-23T16:11:52.836Z,24.33
2023-02-23T16:14:21.864Z,21.88
2023-02-23T16:17:08.391Z,27.48
2023-02-23T16:19:41.552Z,23.23
2023-02-23T16:22:20.219Z,30.08
2023-02-23T16:25:00.716Z,22.52
2023-02-23T16:27:29.201Z,26.48
2023-02-23T16:30:16.041Z,23.48
2023-02-23T16:32:44.688Z,18.83
2023-02-23T16:35:20.219Z,26.42
2023-02-23T16:37:58.064Z,24.25
2023-02-23T16:40:25.704Z,22.05
2023-02-23T16:42:54.079Z,32.03
2023-02-23T16:45:22.278Z,26.85
2023-02-23T16:47:51.669Z,28.88
2023-02-23T16:50:24.269Z,32.20
2023-02-23T16:52:53.160Z,39.97
2023-02-23T16:55:26.667Z,40.50
2023-02-23T16:58:03.831Z,42.38
2023-02-23T17:00:32.847Z,30.02
2023-02-23T17:03:06.190Z,37.55
2023-02-23T17:05:33.687Z,32.60
2023-02-23T17:08:04.910Z,34.03
2023-02-23T17:10:35.080Z,31.55
2023-02-23T17:13:05.592Z,32.20
2023-02-23T17:15:36.606Z,26.23
2023-02-23T17:18:07.148Z,27.98
2023-02-23T17:21:03.761Z,37.42
2023-02-23T17:23:38.980Z,29.50
2023-02-23T17:26:11.285Z,26.58
2023-02-23T17:28:39.592Z,29.67
2023-02-23T17:31:07.873Z,21.80
2023-02-23T17:33:37.077Z,21.02
2023-02-23T17:36:13.466Z,19.95
2023-02-23T17:38:44.084Z,21.73
2023-02-23T17:41:18.064Z,19.30
2023-02-23T17:43:45.878Z,19.27
2023-02-23T17:46:13.827Z,31.08
2023-02-23T17:48:44.478Z,19.02
2023-02-23T17:51:13.098Z,17.30
2023-02-23T17:53:40.786Z,13.52
2023-02-23T17:56:09.494Z,18.45
2023-02-23T17:58:37.944Z,14.13
2023-02-23T18:01:07.198Z,15.20
2023-02-23T18:03:36.630Z,17.48
2023-02-23T18:06:12.416Z,13.50
2023-02-23T18:08:41.885Z,13.43
2023-02-23T18:11:09.709Z,19.48
2023-02-23T18:13:37.005Z,11.98
2023-02-23T18:16:10.277Z,14.70
2023-02-23T18:18:39.866Z,12.43
2023-02-23T18:21:12.374Z,11.50
2023-02-23T18:23:39.940Z,14.25
2023-02-23T18:26:10.079Z,11.13
2023-02-23T18:28:38.609Z,12.18
2023-02-23T18:31:05.986Z,15.50
2023-02-23T18:33:35.766Z,9.60
2023-02-23T18:36:04.054Z,11.20
2023-02-23T18:38:31.348Z,10.95
2023-02-23T18:40:58.754Z,10.52
2023-02-23T18:43:26.021Z,10.60
2023-02-23T18:45:53.280Z,7.88
2023-02-23T18:48:20.481Z,9.82
2023-02-23T18:50:47.783Z,10.50
2023-02-23T18:53:15.146Z,5.22
2023-02-23T18:55:44.518Z,9.73
2023-02-23T18:58:11.751Z,9.82
2023-02-23T19:00:43.298Z,11.32
2023-02-23T19:03:11.353Z,7.55
2023-02-23T19:05:52.799Z,9.15
2023-02-23T19:08:20.708Z,8.50
2023-02-23T19:10:48.698Z,9.18
2023-02-23T19:13:18.178Z,10.32
2023-02-23T19:15:45.461Z,8.77
2023-02-23T19:18:12.652Z,12.02
2023-02-23T19:20:40.016Z,11.20
2023-02-23T19:23:09.920Z,13.50
2023-02-23T19:25:37.187Z,9.00
2023-02-23T19:28:04.707Z,14.98
2023-02-23T19:30:31.919Z,11.10
2023-02-23T19:33:01.174Z,9.18
2023-02-23T19:35:28.542Z,7.97
2023-02-23T19:37:57.520Z,11.55
2023-02-23T19:40:28.448Z,10.93
2023-02-23T19:42:55.766Z,8.15
2023-02-23T19:45:24.835Z,9.68
2023-02-23T19:47:55.590Z,8.02
2023-02-23T19:50:22.811Z,9.07
2023-02-23T19:52:50.187Z,9.35
2023-02-23T19:55:17.497Z,10.73
2023-02-23T19:57:44.755Z,11.93
2023-02-23T20:00:12.854Z,12.38
2023-02-23T20:02:44.332Z,9.85
2023-02-23T20:05:15.993Z,8.82
2023-02-23T20:07:43.619Z,9.43
2023-02-23T20:10:16.058Z,7.45
2023-02-23T20:12:43.874Z,7.53
2023-02-23T20:15:11.146Z,15.63
2023-02-23T20:17:39.983Z,12.63
2023-02-23T20:20:10.270Z,7.30
2023-02-23T20:22:41.248Z,10.10
2023-02-23T20:25:12.450Z,7.68
2023-02-23T20:27:39.667Z,5.97
2023-02-23T20:30:07.616Z,7.30
2023-02-23T20:32:34.997Z,8.07
2023-02-23T20:35:02.541Z,3.80
2023-02-23T20:37:29.842Z,7.40
2023-02-23T20:39:57.120Z,6.60
2023-02-23T20:42:24.693Z,6.90
2023-02-23T20:44:52.511Z,6.95
2023-02-23T20:47:19.718Z,8.10
2023-02-23T20:49:46.973Z,8.40
2023-02-23T20:52:14.312Z,10.95
2023-02-23T20:54:42.044Z,8.48
2023-02-23T20:57:09.425Z,11.05
2023-02-23T20:59:36.921Z,9.38
2023-02-23T21:02:05.804Z,11.75
2023-02-23T21:04:35.934Z,6.72
2023-02-23T21:07:07.592Z,8.10
2023-02-23T21:09:35.088Z,9.18
2023-02-23T21:12:03.635Z,10.65
2023-02-23T21:14:33.502Z,8.77
2023-02-23T21:17:04.076Z,7.28
2023-02-23T21:19:31.341Z,12.63
2023-02-23T21:22:49.972Z,10.32
2023-02-23T21:25:19.645Z,11.68
2023-02-23T21:27:49.305Z,9.00
2023-02-23T21:30:21.399Z,17.02
2023-02-23T21:32:51.172Z,9.88
2023-02-23T21:35:20.250Z,10.35
2023-02-23T21:37:52.600Z,14.27
2023-02-23T21:40:21.249Z,10.80
2023-02-23T21:42:49.770Z,18.23
2023-02-23T21:45:19.182Z,15.90
2023-02-23T21:47:48.184Z,12.82
2023-02-23T21:50:17.726Z,8.82
2023-02-23T21:52:48.478Z,17.58
2023-02-23T21:55:24.477Z,22.85
2023-02-23T21:57:52.362Z,24.13
2023-02-23T22:00:20.705Z,18.25
2023-02-23T22:02:48.746Z,12.63
2023-02-23T22:05:18.005Z,32.58
2023-02-23T22:10:19.804Z,23.60
2023-02-23T22:12:50.049Z,14.95
2023-02-23T22:15:17.298Z,23.08
2023-02-23T22:17:44.529Z,19.88
2023-02-23T22:20:12.296Z,22.05
2023-02-23T22:22:39.636Z,21.48
2023-02-23T22:25:12.710Z,19.90
2023-02-23T22:27:43.776Z,16.27
2023-02-23T22:30:13.396Z,28.15
2023-02-23T22:32:42.505Z,22.25
2023-02-23T22:37:38.791Z,18.90
2023-02-23T22:40:17.039Z,17.08
2023-02-23T22:42:48.530Z,23.38
2023-02-23T22:45:16.410Z,28.75
2023-02-23T22:47:43.944Z,20.70
2023-02-23T22:50:19.049Z,26.35
2023-02-23T22:52:47.043Z,19.30
2023-02-23T22:55:14.430Z,26.38
2023-02-23T22:57:41.666Z,18.83
2023-02-23T23:00:10.375Z,19.08
2023-02-23T23:02:38.006Z,23.67
2023-02-23T23:05:08.798Z,16.90
2023-02-23T23:07:38.990Z,22.17
2023-02-23T23:10:09.297Z,25.40
2023-02-23T23:12:36.787Z,16.77
2023-02-23T23:15:04.289Z,22.23
2023-02-23T23:17:33.555Z,9.85
2023-02-23T23:20:02.934Z,13.88
2023-02-23T23:22:31.596Z,8.65
2023-02-23T23:24:58.862Z,11.48
2023-02-23T23:27:26.114Z,9.90
2023-02-23T23:29:53.299Z,7.93
2023-02-23T23:32:27.390Z,12.90
2023-02-23T23:34:58.953Z,15.75
2023-02-23T23:37:29.200Z,15.73
2023-02-23T23:40:00.016Z,10.27
2023-02-23T23:42:27.745Z,9.35
2023-02-23T23:44:57.078Z,3.35
2023-02-23T23:49:53.587Z,1.23
2023-02-23T23:52:21.069Z,3.38
2023-02-23T23:54:48.445Z,6.50
2023-02-23T23:57:15.739Z,3.08
2023-02-23T23:59:46.489Z,4.63
